Terminal Aerodrome Forecast
Issued by NWS

Home | Current Version | Previous Version | Text Only | Print | Product List | Glossary On
Versions: 1 2 3 4 5 6 7 8 9 10 11 12 13 14 15 16 17 18 19 20 21 22 23
000
FTUS43 KGRR 182100 AAA
TAFAZO
TAF AMD
KAZO 182119Z 1821/1918 28006KT P6SM OVC025
      TEMPO 1821/1824 4SM -FZDZ BR OVC015
     FM190700 33003KT P6SM OVC025
     FM191000 VRB03KT P6SM BKN040
     FM191700 VRB03KT P6SM SCT040=

USA.gov is the U.S. government's official web portal to all federal, state and local government web resources and services.